sensor_id;sensor_type;location;lat;lon;timestamp;temperature;humidity
14154;DHT22;7157;53.144;7.570;2023-07-16T00:02:29;18.51;104.12
14154;DHT22;7157;53.144;7.570;2023-07-16T00:12:32;18.57;103.98
14154;DHT22;7157;53.144;7.570;2023-07-16T00:22:37;18.56;103.86
14154;DHT22;7157;53.144;7.570;2023-07-16T00:32:41;18.56;103.46
14154;DHT22;7157;53.144;7.570;2023-07-16T00:42:45;18.50;103.09
14154;DHT22;7157;53.144;7.570;2023-07-16T00:52:48;18.33;103.39
14154;DHT22;7157;53.144;7.570;2023-07-16T01:02:53;18.08;103.18
14154;DHT22;7157;53.144;7.570;2023-07-16T01:12:56;18.24;103.38
14154;DHT22;7157;53.144;7.570;2023-07-16T01:33:33;18.17;102.83
14154;DHT22;7157;53.144;7.570;2023-07-16T01:43:37;18.05;102.11
14154;DHT22;7157;53.144;7.570;2023-07-16T01:53:41;17.91;102.19
14154;DHT22;7157;53.144;7.570;2023-07-16T02:03:44;17.74;101.99
14154;DHT22;7157;53.144;7.570;2023-07-16T02:13:48;17.59;102.06
14154;DHT22;7157;53.144;7.570;2023-07-16T02:23:51;17.61;101.63
14154;DHT22;7157;53.144;7.570;2023-07-16T02:33:55;17.53;100.77
14154;DHT22;7157;53.144;7.570;2023-07-16T02:44:03;17.70;100.18
14154;DHT22;7157;53.144;7.570;2023-07-16T02:54:08;17.74;99.58
14154;DHT22;7157;53.144;7.570;2023-07-16T03:04:11;17.76;98.67
14154;DHT22;7157;53.144;7.570;2023-07-16T03:14:15;17.63;98.31
14154;DHT22;7157;53.144;7.570;2023-07-16T03:24:18;17.54;98.93
14154;DHT22;7157;53.144;7.570;2023-07-16T03:34:22;17.55;97.70
14154;DHT22;7157;53.144;7.570;2023-07-16T03:44:25;17.52;96.47
14154;DHT22;7157;53.144;7.570;2023-07-16T03:54:29;17.67;96.41
14154;DHT22;7157;53.144;7.570;2023-07-16T04:04:33;17.79;95.28
14154;DHT22;7157;53.144;7.570;2023-07-16T04:14:37;17.69;95.46
14154;DHT22;7157;53.144;7.570;2023-07-16T04:24:40;17.81;94.65
14154;DHT22;7157;53.144;7.570;2023-07-16T04:34:44;17.91;94.17
14154;DHT22;7157;53.144;7.570;2023-07-16T04:44:47;18.04;93.23
14154;DHT22;7157;53.144;7.570;2023-07-16T04:54:51;18.14;91.17
14154;DHT22;7157;53.144;7.570;2023-07-16T05:04:54;18.35;89.91
14154;DHT22;7157;53.144;7.570;2023-07-16T05:14:58;18.41;88.83
14154;DHT22;7157;53.144;7.570;2023-07-16T05:25:02;18.58;88.43
14154;DHT22;7157;53.144;7.570;2023-07-16T05:35:07;18.63;86.72
14154;DHT22;7157;53.144;7.570;2023-07-16T05:45:10;18.85;86.60
14154;DHT22;7157;53.144;7.570;2023-07-16T05:55:14;19.08;86.80
14154;DHT22;7157;53.144;7.570;2023-07-16T06:05:17;19.16;86.41
14154;DHT22;7157;53.144;7.570;2023-07-16T06:15:22;19.14;85.07
14154;DHT22;7157;53.144;7.570;2023-07-16T06:25:24;19.45;83.76
14154;DHT22;7157;53.144;7.570;2023-07-16T06:35:29;19.69;81.82
14154;DHT22;7157;53.144;7.570;2023-07-16T06:45:31;19.84;81.35
14154;DHT22;7157;53.144;7.570;2023-07-16T06:55:37;19.85;79.14
14154;DHT22;7157;53.144;7.570;2023-07-16T07:05:41;19.88;77.08
14154;DHT22;7157;53.144;7.570;2023-07-16T07:15:45;20.19;75.02
14154;DHT22;7157;53.144;7.570;2023-07-16T07:25:49;20.56;74.76
14154;DHT22;7157;53.144;7.570;2023-07-16T07:35:54;20.71;71.46
14154;DHT22;7157;53.144;7.570;2023-07-16T07:45:58;20.57;71.25
14154;DHT22;7157;53.144;7.570;2023-07-16T07:56:02;20.85;67.68
14154;DHT22;7157;53.144;7.570;2023-07-16T08:06:06;21.31;66.61
14154;DHT22;7157;53.144;7.570;2023-07-16T08:16:10;21.29;65.08
14154;DHT22;7157;53.144;7.570;2023-07-16T08:26:13;21.52;64.53
14154;DHT22;7157;53.144;7.570;2023-07-16T08:36:18;22.17;61.95
14154;DHT22;7157;53.144;7.570;2023-07-16T08:46:21;21.85;60.65
14154;DHT22;7157;53.144;7.570;2023-07-16T08:56:25;21.98;60.84
14154;DHT22;7157;53.144;7.570;2023-07-16T09:06:29;22.20;60.31
14154;DHT22;7157;53.144;7.570;2023-07-16T09:16:34;21.90;61.11
14154;DHT22;7157;53.144;7.570;2023-07-16T09:26:37;21.69;61.30
14154;DHT22;7157;53.144;7.570;2023-07-16T09:36:41;21.79;59.39
14154;DHT22;7157;53.144;7.570;2023-07-16T09:46:45;22.06;60.50
14154;DHT22;7157;53.144;7.570;2023-07-16T09:56:52;22.43;58.80
14154;DHT22;7157;53.144;7.570;2023-07-16T10:06:58;23.39;57.48
14154;DHT22;7157;53.144;7.570;2023-07-16T10:17:05;23.50;56.08
14154;DHT22;7157;53.144;7.570;2023-07-16T10:27:08;23.24;56.38
14154;DHT22;7157;53.144;7.570;2023-07-16T10:37:12;23.59;55.04
14154;DHT22;7157;53.144;7.570;2023-07-16T10:47:19;23.34;54.39
14154;DHT22;7157;53.144;7.570;2023-07-16T10:57:25;23.42;55.68
14154;DHT22;7157;53.144;7.570;2023-07-16T11:07:28;24.09;53.91
14154;DHT22;7157;53.144;7.570;2023-07-16T11:17:32;23.28;53.96
14154;DHT22;7157;53.144;7.570;2023-07-16T11:27:35;23.36;54.83
14154;DHT22;7157;53.144;7.570;2023-07-16T11:37:40;22.23;57.42
14154;DHT22;7157;53.144;7.570;2023-07-16T11:47:42;22.27;58.95
14154;DHT22;7157;53.144;7.570;2023-07-16T11:57:47;24.38;52.27
14154;DHT22;7157;53.144;7.570;2023-07-16T12:07:49;23.18;54.71
14154;DHT22;7157;53.144;7.570;2023-07-16T12:17:54;23.35;56.36
14154;DHT22;7157;53.144;7.570;2023-07-16T12:27:57;22.85;56.27
14154;DHT22;7157;53.144;7.570;2023-07-16T12:38:01;22.82;56.84
14154;DHT22;7157;53.144;7.570;2023-07-16T12:48:05;23.14;56.97
14154;DHT22;7157;53.144;7.570;2023-07-16T12:58:09;23.65;55.10
14154;DHT22;7157;53.144;7.570;2023-07-16T13:08:12;23.17;56.66
14154;DHT22;7157;53.144;7.570;2023-07-16T13:18:16;23.21;55.69
14154;DHT22;7157;53.144;7.570;2023-07-16T13:28:19;23.31;55.90
14154;DHT22;7157;53.144;7.570;2023-07-16T13:38:24;23.76;54.88
14154;DHT22;7157;53.144;7.570;2023-07-16T13:48:27;24.09;53.43
14154;DHT22;7157;53.144;7.570;2023-07-16T13:58:39;22.94;55.25
14154;DHT22;7157;53.144;7.570;2023-07-16T14:08:42;23.44;55.95
14154;DHT22;7157;53.144;7.570;2023-07-16T14:18:50;23.81;54.74
14154;DHT22;7157;53.144;7.570;2023-07-16T14:28:53;22.97;57.43
14154;DHT22;7157;53.144;7.570;2023-07-16T14:38:57;23.16;58.38
14154;DHT22;7157;53.144;7.570;2023-07-16T14:49:00;23.76;56.36
14154;DHT22;7157;53.144;7.570;2023-07-16T14:59:05;24.00;56.58
14154;DHT22;7157;53.144;7.570;2023-07-16T15:09:09;23.85;58.34
14154;DHT22;7157;53.144;7.570;2023-07-16T15:19:16;23.54;59.17
14154;DHT22;7157;53.144;7.570;2023-07-16T15:29:19;23.28;59.08
14154;DHT22;7157;53.144;7.570;2023-07-16T15:39:24;23.00;60.64
14154;DHT22;7157;53.144;7.570;2023-07-16T15:49:27;23.46;59.04
14154;DHT22;7157;53.144;7.570;2023-07-16T15:59:32;23.83;58.58
14154;DHT22;7157;53.144;7.570;2023-07-16T16:09:35;23.71;57.51
14154;DHT22;7157;53.144;7.570;2023-07-16T16:19:39;23.76;56.78
14154;DHT22;7157;53.144;7.570;2023-07-16T16:29:45;23.94;55.04
14154;DHT22;7157;53.144;7.570;2023-07-16T16:39:50;23.08;56.93
14154;DHT22;7157;53.144;7.570;2023-07-16T16:49:55;20.53;76.85
14154;DHT22;7157;53.144;7.570;2023-07-16T17:00:00;20.51;82.94
14154;DHT22;7157;53.144;7.570;2023-07-16T17:10:04;20.80;84.47
14154;DHT22;7157;53.144;7.570;2023-07-16T17:20:09;21.11;83.32
14154;DHT22;7157;53.144;7.570;2023-07-16T17:30:14;21.20;83.17
14154;DHT22;7157;53.144;7.570;2023-07-16T17:40:19;21.46;82.68
14154;DHT22;7157;53.144;7.570;2023-07-16T17:50:23;21.82;78.65
14154;DHT22;7157;53.144;7.570;2023-07-16T18:00:28;21.96;77.44
14154;DHT22;7157;53.144;7.570;2023-07-16T18:10:31;22.02;75.02
14154;DHT22;7157;53.144;7.570;2023-07-16T18:20:35;21.40;76.34
14154;DHT22;7157;53.144;7.570;2023-07-16T18:30:41;21.33;77.76
14154;DHT22;7157;53.144;7.570;2023-07-16T18:40:45;21.20;76.76
14154;DHT22;7157;53.144;7.570;2023-07-16T18:50:48;21.22;78.01
14154;DHT22;7157;53.144;7.570;2023-07-16T19:00:53;21.18;79.88
14154;DHT22;7157;53.144;7.570;2023-07-16T19:10:58;21.07;81.62
14154;DHT22;7157;53.144;7.570;2023-07-16T19:21:03;20.87;81.58
14154;DHT22;7157;53.144;7.570;2023-07-16T19:31:06;20.69;81.39
14154;DHT22;7157;53.144;7.570;2023-07-16T19:41:10;20.68;80.89
14154;DHT22;7157;53.144;7.570;2023-07-16T19:51:14;20.62;81.45
14154;DHT22;7157;53.144;7.570;2023-07-16T20:01:19;20.32;80.81
14154;DHT22;7157;53.144;7.570;2023-07-16T20:11:23;20.11;80.36
14154;DHT22;7157;53.144;7.570;2023-07-16T20:21:27;19.89;81.31
14154;DHT22;7157;53.144;7.570;2023-07-16T20:31:31;19.68;81.97
14154;DHT22;7157;53.144;7.570;2023-07-16T20:41:35;19.55;82.27
14154;DHT22;7157;53.144;7.570;2023-07-16T20:51:38;19.45;82.46
14154;DHT22;7157;53.144;7.570;2023-07-16T21:01:42;19.44;82.47
14154;DHT22;7157;53.144;7.570;2023-07-16T21:11:46;19.20;84.97
14154;DHT22;7157;53.144;7.570;2023-07-16T21:21:50;19.13;86.31
14154;DHT22;7157;53.144;7.570;2023-07-16T21:31:53;19.18;86.72
14154;DHT22;7157;53.144;7.570;2023-07-16T21:41:58;19.14;86.80
14154;DHT22;7157;53.144;7.570;2023-07-16T21:52:00;19.07;86.64
14154;DHT22;7157;53.144;7.570;2023-07-16T22:02:06;18.99;87.28
14154;DHT22;7157;53.144;7.570;2023-07-16T22:12:09;19.01;87.71
14154;DHT22;7157;53.144;7.570;2023-07-16T22:22:14;19.00;87.95
14154;DHT22;7157;53.144;7.570;2023-07-16T22:32:17;19.01;87.77
14154;DHT22;7157;53.144;7.570;2023-07-16T22:42:21;18.99;87.91
14154;DHT22;7157;53.144;7.570;2023-07-16T22:52:26;18.96;88.21
14154;DHT22;7157;53.144;7.570;2023-07-16T23:02:30;18.91;88.62
14154;DHT22;7157;53.144;7.570;2023-07-16T23:12:33;18.85;89.09
14154;DHT22;7157;53.144;7.570;2023-07-16T23:22:37;18.80;89.34
14154;DHT22;7157;53.144;7.570;2023-07-16T23:32:42;18.67;90.29
14154;DHT22;7157;53.144;7.570;2023-07-16T23:42:46;18.73;88.99
14154;DHT22;7157;53.144;7.570;2023-07-16T23:52:49;18.67;88.00
